createdAt,value
2022-11-29T00:01:44.510Z,74.11
2022-11-29T00:04:13.428Z,74.20
2022-11-29T00:06:42.846Z,73.91
2022-11-29T00:09:13.686Z,74.24
2022-11-29T00:12:01.511Z,74.05
2022-11-29T00:14:30.836Z,74.11
2022-11-29T00:17:04.980Z,74.13
2022-11-29T00:19:36.174Z,74.25
2022-11-29T00:22:04.986Z,74.35
2022-11-29T00:24:33.795Z,74.36
2022-11-29T00:27:02.626Z,74.05
2022-11-29T00:29:31.674Z,74.40
2022-11-29T00:32:01.044Z,74.17
2022-11-29T00:34:30.680Z,74.18
2022-11-29T00:36:59.498Z,74.22
2022-11-29T00:39:28.248Z,74.39
2022-11-29T00:41:57.053Z,74.39
2022-11-29T00:44:26.615Z,74.59
2022-11-29T00:46:55.486Z,74.10
2022-11-29T00:49:24.271Z,74.17
2022-11-29T00:51:53.120Z,74.23
2022-11-29T00:54:21.958Z,74.25
2022-11-29T00:56:50.768Z,74.23
2022-11-29T00:59:19.934Z,74.13
2022-11-29T01:01:50.409Z,74.25
2022-11-29T01:04:20.191Z,74.13
2022-11-29T01:06:53.871Z,74.20
2022-11-29T01:09:22.695Z,74.19
2022-11-29T01:11:51.613Z,74.51
2022-11-29T01:14:20.442Z,74.12
2022-11-29T01:16:49.294Z,74.20
2022-11-29T01:19:18.072Z,74.01
2022-11-29T01:21:46.835Z,74.49
2022-11-29T01:24:15.716Z,74.35
2022-11-29T01:26:45.214Z,74.19
2022-11-29T01:29:15.956Z,74.18
2022-11-29T01:31:45.030Z,74.45
2022-11-29T01:34:14.910Z,74.15
2022-11-29T01:36:44.831Z,74.15
2022-11-29T01:39:13.957Z,74.18
2022-11-29T01:41:42.755Z,74.26
2022-11-29T01:44:15.377Z,74.21
2022-11-29T01:46:46.958Z,74.17
2022-11-29T01:49:20.719Z,74.06
2022-11-29T01:52:05.738Z,74.22
2022-11-29T01:54:43.342Z,73.92
2022-11-29T01:57:13.574Z,73.97
2022-11-29T01:59:47.293Z,74.13
2022-11-29T02:02:21.955Z,73.95
2022-11-29T02:04:51.326Z,73.98
2022-11-29T02:07:20.191Z,74.13
2022-11-29T02:09:49.067Z,73.88
2022-11-29T02:12:32.889Z,74.26
2022-11-29T02:15:08.656Z,74.23
2022-11-29T02:18:03.970Z,74.13
2022-11-29T02:20:50.771Z,74.07
2022-11-29T02:23:57.190Z,74.54
2022-11-29T02:26:40.967Z,74.07
2022-11-29T02:29:32.901Z,74.07
2022-11-29T02:32:25.139Z,74.16
2022-11-29T02:34:59.563Z,74.10
2022-11-29T02:37:56.073Z,74.06
2022-11-29T02:40:40.424Z,73.94
2022-11-29T02:43:53.846Z,74.03
2022-11-29T02:46:46.398Z,74.25
2022-11-29T02:49:36.777Z,74.20
2022-11-29T02:52:13.909Z,74.21
2022-11-29T02:55:13.960Z,74.05
2022-11-29T02:58:14.512Z,74.32
2022-11-29T03:01:09.957Z,74.14
2022-11-29T03:03:50.385Z,74.35
2022-11-29T03:06:34.753Z,74.24
2022-11-29T03:09:10.098Z,74.34
2022-11-29T03:11:51.591Z,74.00
2022-11-29T03:14:55.405Z,74.41
2022-11-29T03:17:30.010Z,74.14
2022-11-29T03:20:14.218Z,74.25
2022-11-29T03:23:15.874Z,74.14
2022-11-29T03:25:52.644Z,74.24
2022-11-29T03:28:24.758Z,74.20
2022-11-29T03:31:02.032Z,74.49
2022-11-29T03:33:42.266Z,74.24
2022-11-29T03:36:19.858Z,74.51
2022-11-29T03:38:48.943Z,74.30
2022-11-29T03:41:25.925Z,74.71
2022-11-29T03:44:01.088Z,74.47
2022-11-29T03:46:53.387Z,74.08
2022-11-29T03:49:54.918Z,74.30
2022-11-29T03:52:45.056Z,74.30
2022-11-29T03:55:22.715Z,74.17
2022-11-29T03:58:00.181Z,74.22
2022-11-29T04:00:46.048Z,74.19
2022-11-29T04:03:45.524Z,74.37
2022-11-29T04:06:53.604Z,74.64
2022-11-29T04:09:43.968Z,74.22
2022-11-29T04:12:34.003Z,74.29
2022-11-29T04:15:20.727Z,74.43
2022-11-29T04:18:30.773Z,74.31
2022-11-29T04:21:14.608Z,74.29
2022-11-29T04:23:49.261Z,74.29
2022-11-29T04:26:35.002Z,74.59
2022-11-29T04:29:22.330Z,74.44
2022-11-29T04:32:35.892Z,74.53
2022-11-29T04:35:22.886Z,74.23
2022-11-29T04:38:20.758Z,74.19
2022-11-29T04:41:01.397Z,74.57
2022-11-29T04:43:58.260Z,74.27
2022-11-29T04:46:51.774Z,74.36
2022-11-29T04:49:54.332Z,74.56
2022-11-29T04:52:29.272Z,74.45
2022-11-29T04:55:03.584Z,74.14
2022-11-29T04:57:56.917Z,74.20
2022-11-29T05:00:27.037Z,74.92
2022-11-29T05:03:02.554Z,74.69
2022-11-29T05:05:49.573Z,74.64
2022-11-29T05:08:27.446Z,74.64
2022-11-29T05:11:04.957Z,74.80
2022-11-29T05:13:46.555Z,74.52
2022-11-29T05:16:49.727Z,74.89
2022-11-29T05:19:40.844Z,74.94
2022-11-29T05:22:22.023Z,74.71
2022-11-29T05:25:22.108Z,75.10
2022-11-29T05:28:25.245Z,74.74
2022-11-29T05:31:22.353Z,74.78
2022-11-29T05:34:23.992Z,74.47
2022-11-29T05:37:14.559Z,74.77
2022-11-29T05:39:45.999Z,74.74
2022-11-29T05:42:45.279Z,74.82
2022-11-29T05:45:25.827Z,74.56
2022-11-29T05:48:08.075Z,74.89
2022-11-29T05:50:48.758Z,74.75
2022-11-29T05:53:34.936Z,74.82
2022-11-29T05:56:11.379Z,74.86
2022-11-29T05:59:20.977Z,74.79
2022-11-29T06:02:15.116Z,74.92
2022-11-29T06:05:07.139Z,75.00
2022-11-29T06:07:45.835Z,74.94
2022-11-29T06:10:20.399Z,74.47
2022-11-29T06:13:24.543Z,74.88
2022-11-29T06:16:14.931Z,74.70
2022-11-29T06:19:17.638Z,75.07
2022-11-29T06:22:17.585Z,74.74
2022-11-29T06:24:47.501Z,74.89
2022-11-29T06:27:51.248Z,74.98
2022-11-29T06:30:33.256Z,75.04
2022-11-29T06:33:22.037Z,75.03
2022-11-29T06:36:10.656Z,74.89
2022-11-29T06:38:39.795Z,74.77
2022-11-29T06:41:17.065Z,74.71
2022-11-29T06:43:46.694Z,74.96
2022-11-29T06:46:21.948Z,75.40
2022-11-29T06:49:01.947Z,74.93
2022-11-29T06:51:56.121Z,74.98
2022-11-29T06:54:43.784Z,74.98
2022-11-29T06:57:27.753Z,74.84
2022-11-29T07:00:21.100Z,74.92
2022-11-29T07:02:55.963Z,75.24
2022-11-29T07:05:35.996Z,75.12
2022-11-29T07:08:26.862Z,75.38
2022-11-29T07:10:56.672Z,75.19
2022-11-29T07:13:25.830Z,75.18
2022-11-29T07:16:17.295Z,75.32
2022-11-29T07:19:04.426Z,75.22
2022-11-29T07:21:47.231Z,75.24
2022-11-29T07:24:35.114Z,75.16
2022-11-29T07:27:11.212Z,75.45
2022-11-29T07:30:03.759Z,75.55
2022-11-29T07:32:33.979Z,75.32
2022-11-29T07:35:20.012Z,75.52
2022-11-29T07:38:10.626Z,75.47
2022-11-29T07:41:17.207Z,75.55
2022-11-29T07:43:57.793Z,75.46
2022-11-29T07:46:30.027Z,75.47
2022-11-29T07:48:59.017Z,76.03
2022-11-29T07:51:27.854Z,75.30
2022-11-29T07:53:58.340Z,75.57
2022-11-29T07:56:27.915Z,75.58
2022-11-29T07:58:56.828Z,75.59
2022-11-29T08:01:26.646Z,75.76
2022-11-29T08:03:56.022Z,75.56
2022-11-29T08:06:26.700Z,75.31
2022-11-29T08:08:58.736Z,75.72
2022-11-29T08:11:28.576Z,75.58
2022-11-29T08:14:01.042Z,75.43
2022-11-29T08:16:30.983Z,75.54
2022-11-29T08:19:00.042Z,75.72
2022-11-29T08:21:28.919Z,75.67
2022-11-29T08:23:57.813Z,75.62
2022-11-29T08:26:31.199Z,75.80
2022-11-29T08:29:00.625Z,75.38
2022-11-29T08:31:29.444Z,75.68
2022-11-29T08:33:58.297Z,75.55
2022-11-29T08:36:27.171Z,75.81
2022-11-29T08:39:03.452Z,75.58
2022-11-29T08:41:34.962Z,75.66
2022-11-29T08:44:06.035Z,75.79
2022-11-29T08:46:53.830Z,75.53
2022-11-29T08:49:22.721Z,75.74
2022-11-29T08:52:14.585Z,75.58
2022-11-29T08:54:44.321Z,75.56
2022-11-29T09:00:02.682Z,75.48
2022-11-29T09:02:34.870Z,75.77
2022-11-29T09:05:04.443Z,75.65
2022-11-29T09:07:34.374Z,75.53
2022-11-29T09:10:06.010Z,75.89
2022-11-29T09:12:39.598Z,75.58
2022-11-29T09:15:10.735Z,75.84
2022-11-29T09:17:39.712Z,75.71
2022-11-29T09:20:09.498Z,75.66
2022-11-29T09:22:38.404Z,75.76
2022-11-29T09:25:07.685Z,75.67
2022-11-29T09:27:36.560Z,75.94
2022-11-29T09:30:06.732Z,75.81
2022-11-29T09:32:36.563Z,75.66
2022-11-29T09:35:05.598Z,75.79
2022-11-29T09:37:35.654Z,75.47
2022-11-29T09:40:06.373Z,75.71
2022-11-29T09:42:53.883Z,75.81
2022-11-29T09:45:31.045Z,75.57
2022-11-29T09:48:21.870Z,75.78
2022-11-29T09:51:24.970Z,75.71
2022-11-29T09:54:12.050Z,75.66
2022-11-29T09:56:51.560Z,75.45
2022-11-29T09:59:33.232Z,75.75
2022-11-29T10:02:23.682Z,75.38
2022-11-29T10:05:03.616Z,75.57
2022-11-29T10:07:46.976Z,75.65
2022-11-29T10:10:28.395Z,75.60
2022-11-29T10:13:16.587Z,75.42
2022-11-29T10:15:51.659Z,75.61
2022-11-29T10:18:31.867Z,75.60
2022-11-29T10:21:13.346Z,75.68
2022-11-29T10:23:49.690Z,75.63
2022-11-29T10:26:18.772Z,75.76
2022-11-29T10:28:49.939Z,75.51
2022-11-29T10:31:27.364Z,75.68
2022-11-29T10:34:00.409Z,75.25
2022-11-29T10:36:43.056Z,75.68
2022-11-29T10:39:27.506Z,75.59
2022-11-29T10:42:00.877Z,75.74
2022-11-29T10:44:32.353Z,75.70
2022-11-29T10:47:10.532Z,75.79
2022-11-29T10:49:41.180Z,75.47
2022-11-29T10:52:21.085Z,75.75
2022-11-29T10:54:51.729Z,76.01
2022-11-29T10:57:23.503Z,75.64
2022-11-29T11:00:05.171Z,75.61
2022-11-29T11:02:35.813Z,75.77
2022-11-29T11:05:13.888Z,75.58
2022-11-29T11:07:42.820Z,75.71
2022-11-29T11:10:38.125Z,75.48
2022-11-29T11:13:22.365Z,75.69
2022-11-29T11:16:09.782Z,75.76
2022-11-29T11:18:39.335Z,75.84
2022-11-29T11:21:17.648Z,75.63
2022-11-29T11:24:22.039Z,75.54
2022-11-29T11:26:51.087Z,75.59
2022-11-29T11:29:25.385Z,75.59
2022-11-29T11:31:56.932Z,75.74
2022-11-29T11:34:37.460Z,75.43
2022-11-29T11:37:15.526Z,75.47
2022-11-29T11:39:47.160Z,75.65
2022-11-29T11:42:38.347Z,75.80
2022-11-29T11:45:13.392Z,75.52
2022-11-29T11:47:53.993Z,75.77
2022-11-29T11:50:51.022Z,75.66
2022-11-29T11:53:36.552Z,75.81
2022-11-29T11:56:12.362Z,75.62
2022-11-29T11:59:01.587Z,75.67
2022-11-29T12:01:38.755Z,75.48
2022-11-29T12:04:15.974Z,75.85
2022-11-29T12:07:04.840Z,75.95
2022-11-29T12:09:49.744Z,75.66
2022-11-29T12:12:32.613Z,75.85
2022-11-29T12:15:11.451Z,75.85
2022-11-29T12:17:49.172Z,75.87
2022-11-29T12:20:30.039Z,76.04
2022-11-29T12:23:14.065Z,76.06
2022-11-29T12:26:04.987Z,75.78
2022-11-29T12:28:39.551Z,75.87
2022-11-29T12:31:44.849Z,75.84
2022-11-29T12:34:35.670Z,75.66
2022-11-29T12:37:16.411Z,75.61
2022-11-29T12:40:09.643Z,75.94
2022-11-29T12:42:50.748Z,75.74
2022-11-29T12:45:35.784Z,75.61
2022-11-29T12:48:39.064Z,75.68
2022-11-29T12:51:28.580Z,75.59
2022-11-29T12:54:22.417Z,75.54
2022-11-29T12:57:17.475Z,75.64
2022-11-29T13:00:05.270Z,75.64
2022-11-29T13:03:14.320Z,75.60
2022-11-29T13:06:08.335Z,75.69
2022-11-29T13:08:38.352Z,76.01
2022-11-29T13:11:16.016Z,75.72
2022-11-29T13:13:47.889Z,75.56
2022-11-29T13:16:32.866Z,75.92
2022-11-29T13:19:34.456Z,75.77
2022-11-29T13:22:17.928Z,75.79
2022-11-29T13:24:55.654Z,75.73
2022-11-29T13:27:40.790Z,75.83
2022-11-29T13:30:15.730Z,75.67
2022-11-29T13:33:26.489Z,75.71
2022-11-29T13:36:08.260Z,75.52
2022-11-29T13:38:41.498Z,75.54
2022-11-29T13:41:14.059Z,76.00
2022-11-29T13:44:11.381Z,75.79
2022-11-29T13:46:40.332Z,75.77
2022-11-29T13:49:23.515Z,75.68
2022-11-29T13:52:06.475Z,75.65
2022-11-29T13:54:35.562Z,75.82
2022-11-29T13:57:08.689Z,75.84
2022-11-29T13:59:47.088Z,75.70
2022-11-29T14:02:31.394Z,75.99
2022-11-29T14:05:01.975Z,75.65
2022-11-29T14:07:33.792Z,75.69
2022-11-29T14:10:28.451Z,75.89
2022-11-29T14:13:00.480Z,75.62
2022-11-29T14:15:34.237Z,75.56
2022-11-29T14:18:08.809Z,75.44
2022-11-29T14:20:44.630Z,75.63
2022-11-29T14:23:13.661Z,75.73
2022-11-29T14:25:57.695Z,75.71
2022-11-29T14:28:42.250Z,75.53
2022-11-29T14:31:11.474Z,75.45
2022-11-29T14:34:16.825Z,75.81
2022-11-29T14:36:54.740Z,75.77
2022-11-29T14:39:45.609Z,75.83
2022-11-29T14:42:21.087Z,75.46
2022-11-29T14:45:01.455Z,75.71
2022-11-29T14:47:47.915Z,75.31
2022-11-29T14:50:40.382Z,75.65
2022-11-29T14:53:31.105Z,75.64
2022-11-29T14:56:50.001Z,75.56
2022-11-29T14:59:40.403Z,75.58
2022-11-29T15:02:35.662Z,75.79
2022-11-29T15:05:25.120Z,75.53
2022-11-29T15:08:15.053Z,75.30
2022-11-29T15:11:02.064Z,75.45
2022-11-29T15:13:36.515Z,75.67
2022-11-29T15:16:24.104Z,75.77
2022-11-29T15:19:17.295Z,75.55
2022-11-29T15:22:14.289Z,75.73
2022-11-29T15:25:02.953Z,75.52
2022-11-29T15:27:35.161Z,75.68
2022-11-29T15:30:34.444Z,75.49
2022-11-29T15:33:05.470Z,75.61
2022-11-29T15:35:36.074Z,75.50
2022-11-29T15:38:05.114Z,75.42
2022-11-29T15:40:39.451Z,75.44
2022-11-29T15:43:32.089Z,75.28
2022-11-29T15:46:01.837Z,75.42
2022-11-29T15:48:33.382Z,75.46
2022-11-29T15:51:21.108Z,75.68
2022-11-29T15:54:15.564Z,75.65
2022-11-29T15:56:49.642Z,75.61
2022-11-29T15:59:42.147Z,75.55
2022-11-29T16:02:29.488Z,75.62
2022-11-29T16:05:28.876Z,75.37
2022-11-29T16:08:14.927Z,75.41
2022-11-29T16:10:50.121Z,75.43
2022-11-29T16:13:41.488Z,75.56
2022-11-29T16:16:23.119Z,75.42
2022-11-29T16:18:52.355Z,75.43
2022-11-29T16:21:29.813Z,75.06
2022-11-29T16:23:59.666Z,75.66
2022-11-29T16:26:40.218Z,75.74
2022-11-29T16:29:26.033Z,75.55
2022-11-29T16:31:56.082Z,75.40
2022-11-29T16:34:35.036Z,75.51
2022-11-29T16:37:15.401Z,75.33
2022-11-29T16:39:49.065Z,75.56
2022-11-29T16:42:28.739Z,75.40
2022-11-29T16:45:35.398Z,75.78
2022-11-29T16:48:27.462Z,75.60
2022-11-29T16:51:14.002Z,75.65
2022-11-29T16:53:44.029Z,75.67
2022-11-29T16:56:14.816Z,75.63
2022-11-29T16:59:25.421Z,75.39
2022-11-29T17:01:35.786Z,75.68
2022-11-29T17:04:05.061Z,75.43
2022-11-29T17:06:35.411Z,75.75
2022-11-29T17:09:05.699Z,75.39
2022-11-29T17:11:34.554Z,75.69
2022-11-29T17:14:03.555Z,75.60
2022-11-29T17:16:32.575Z,75.87
2022-11-29T17:19:01.928Z,75.55
2022-11-29T17:21:31.973Z,75.51
2022-11-29T17:24:00.830Z,75.57
2022-11-29T17:26:29.930Z,75.67
2022-11-29T17:28:59.163Z,75.76
2022-11-29T17:31:28.305Z,75.58
2022-11-29T17:33:57.284Z,75.93
2022-11-29T17:36:26.225Z,75.63
2022-11-29T17:38:55.556Z,75.41
2022-11-29T17:41:25.390Z,75.74
2022-11-29T17:43:55.547Z,75.70
2022-11-29T17:46:26.762Z,75.61
2022-11-29T17:48:57.407Z,75.71
2022-11-29T17:54:15.181Z,75.52
2022-11-29T17:56:44.073Z,75.67
2022-11-29T17:59:12.912Z,75.69
2022-11-29T18:01:42.859Z,75.46
2022-11-29T18:04:12.095Z,75.16
2022-11-29T18:06:42.015Z,75.55
2022-11-29T18:09:12.904Z,75.36
2022-11-29T18:11:48.955Z,75.65
2022-11-29T18:14:23.587Z,75.52
2022-11-29T18:16:53.132Z,75.51
2022-11-29T18:19:24.462Z,75.39
2022-11-29T18:21:53.362Z,75.62
2022-11-29T18:24:22.205Z,75.71
2022-11-29T18:26:51.898Z,75.72
2022-11-29T18:29:21.320Z,75.79
2022-11-29T18:31:50.247Z,75.76
2022-11-29T18:34:19.121Z,75.62
2022-11-29T18:36:49.462Z,75.72
2022-11-29T18:39:20.784Z,75.89
2022-11-29T18:41:51.237Z,75.54
2022-11-29T18:44:30.355Z,75.39
2022-11-29T18:46:59.384Z,75.57
2022-11-29T18:49:29.094Z,75.74
2022-11-29T18:51:57.962Z,75.62
2022-11-29T18:54:27.229Z,75.57
2022-11-29T18:56:56.093Z,75.62
2022-11-29T18:59:25.780Z,75.68
2022-11-29T19:01:55.165Z,75.68
2022-11-29T19:04:24.338Z,75.70
2022-11-29T19:06:53.184Z,75.75
2022-11-29T19:09:23.030Z,75.95
2022-11-29T19:11:52.198Z,75.53
2022-11-29T19:14:21.252Z,75.39
2022-11-29T19:16:51.271Z,75.39
2022-11-29T19:19:20.367Z,75.52
2022-11-29T19:21:50.115Z,75.81
2022-11-29T19:24:19.658Z,75.61
2022-11-29T19:26:50.344Z,75.83
2022-11-29T19:29:19.356Z,75.66
2022-11-29T19:31:48.531Z,75.71
2022-11-29T19:34:17.935Z,75.63
2022-11-29T19:36:46.848Z,75.54
2022-11-29T19:39:17.964Z,75.85
2022-11-29T19:41:48.566Z,75.78
2022-11-29T19:44:17.347Z,75.78
2022-11-29T19:46:49.100Z,75.50
2022-11-29T19:49:20.155Z,75.54
2022-11-29T19:51:49.136Z,75.73
2022-11-29T19:54:17.967Z,75.60
2022-11-29T19:56:46.901Z,75.37
2022-11-29T19:59:16.228Z,75.49
2022-11-29T20:01:45.571Z,75.63
2022-11-29T20:04:17.295Z,75.53
2022-11-29T20:06:48.153Z,75.60
2022-11-29T20:09:17.185Z,75.55
2022-11-29T20:11:46.859Z,75.25
2022-11-29T20:14:17.903Z,75.34
2022-11-29T20:16:46.784Z,75.33
2022-11-29T20:19:17.530Z,75.42
2022-11-29T20:21:49.317Z,75.29
2022-11-29T20:24:20.213Z,75.36
2022-11-29T20:26:50.272Z,75.18
2022-11-29T20:29:19.940Z,75.25
2022-11-29T20:31:50.948Z,75.29
2022-11-29T20:34:21.318Z,75.23
2022-11-29T20:36:59.430Z,75.31
2022-11-29T20:39:41.209Z,75.23
2022-11-29T20:42:23.125Z,75.27
2022-11-29T20:44:56.208Z,75.38
2022-11-29T20:47:27.587Z,75.34
2022-11-29T20:49:57.767Z,75.16
2022-11-29T20:52:38.176Z,75.28
2022-11-29T20:55:07.430Z,75.09
2022-11-29T20:57:38.874Z,75.30
2022-11-29T21:00:14.603Z,75.08
2022-11-29T21:02:43.795Z,75.34
2022-11-29T21:05:13.173Z,75.27
2022-11-29T21:07:42.213Z,75.20
2022-11-29T21:10:11.429Z,75.42
2022-11-29T21:12:42.283Z,75.18
2022-11-29T21:15:13.349Z,75.42
2022-11-29T21:17:43.456Z,75.28
2022-11-29T21:20:38.443Z,75.38
2022-11-29T21:23:23.564Z,75.23
2022-11-29T21:26:30.861Z,75.08
2022-11-29T21:29:16.001Z,75.00
2022-11-29T21:31:46.299Z,75.09
2022-11-29T21:34:15.172Z,74.92
2022-11-29T21:36:45.425Z,75.31
2022-11-29T21:39:18.088Z,75.20
2022-11-29T21:41:48.978Z,75.44
2022-11-29T21:44:18.258Z,75.08
2022-11-29T21:46:47.150Z,75.21
2022-11-29T21:49:16.072Z,75.26
2022-11-29T21:51:45.019Z,75.04
2022-11-29T21:54:13.910Z,75.18
2022-11-29T21:56:43.085Z,75.15
2022-11-29T21:59:12.466Z,75.14
2022-11-29T22:01:42.220Z,75.07
2022-11-29T22:04:11.492Z,75.28
2022-11-29T22:06:40.295Z,75.14
2022-11-29T22:09:10.052Z,75.05
2022-11-29T22:11:39.180Z,74.98
2022-11-29T22:14:14.976Z,75.15
2022-11-29T22:16:54.145Z,75.30
2022-11-29T22:19:33.152Z,75.01
2022-11-29T22:22:06.090Z,74.83
2022-11-29T22:24:37.549Z,74.90
2022-11-29T22:27:06.739Z,74.90
2022-11-29T22:29:35.651Z,74.81
2022-11-29T22:32:04.663Z,74.76
2022-11-29T22:34:33.684Z,74.98
2022-11-29T22:37:02.596Z,74.86
2022-11-29T22:39:31.878Z,75.01
2022-11-29T22:42:00.849Z,74.98
2022-11-29T22:44:30.760Z,74.98
2022-11-29T22:46:59.832Z,75.21
2022-11-29T22:49:28.980Z,75.10
2022-11-29T22:51:57.907Z,74.97
2022-11-29T22:54:26.796Z,74.83
2022-11-29T22:56:55.708Z,74.97
2022-11-29T22:59:24.947Z,75.03
2022-11-29T23:01:55.071Z,75.11
2022-11-29T23:04:24.365Z,74.88
2022-11-29T23:06:53.309Z,74.92
2022-11-29T23:09:22.842Z,74.82
2022-11-29T23:11:56.763Z,74.81
2022-11-29T23:14:26.054Z,75.06
2022-11-29T23:16:55.165Z,74.99
2022-11-29T23:19:24.282Z,74.56
2022-11-29T23:21:53.436Z,75.06
2022-11-29T23:24:22.442Z,74.80
2022-11-29T23:26:51.505Z,74.95
2022-11-29T23:29:20.711Z,75.19
2022-11-29T23:31:50.373Z,75.01
2022-11-29T23:34:19.437Z,75.01
2022-11-29T23:36:52.626Z,74.87
2022-11-29T23:39:22.145Z,74.76
2022-11-29T23:41:52.122Z,74.79
2022-11-29T23:44:21.007Z,75.03
2022-11-29T23:46:49.963Z,75.31
2022-11-29T23:49:19.119Z,75.06
2022-11-29T23:51:48.443Z,74.77
2022-11-29T23:54:17.755Z,74.85
2022-11-29T23:56:46.573Z,74.83
2022-11-29T23:59:15.394Z,74.86
